createdAt,value
2017-10-16T00:01:55.291Z,51.60
2017-10-16T00:04:22.705Z,56.37
2017-10-16T00:06:50.136Z,58.10
2017-10-16T00:09:17.558Z,50.63
2017-10-16T00:11:44.965Z,48.13
2017-10-16T00:14:12.390Z,45.20
2017-10-16T00:16:39.796Z,42.80
2017-10-16T00:19:07.194Z,50.95
2017-10-16T00:21:34.610Z,47.60
2017-10-16T00:24:02.111Z,45.20
2017-10-16T00:26:29.615Z,44.30
2017-10-16T00:28:56.999Z,47.00
2017-10-16T00:31:24.399Z,41.47
2017-10-16T00:33:51.810Z,44.90
2017-10-16T00:36:19.235Z,40.80
2017-10-16T00:38:46.639Z,40.70
2017-10-16T00:41:14.096Z,41.13
2017-10-16T00:43:41.477Z,40.77
2017-10-16T00:46:08.907Z,38.63
2017-10-16T00:48:37.238Z,37.50
2017-10-16T00:51:04.653Z,47.47
2017-10-16T00:53:32.057Z,47.20
2017-10-16T00:55:59.455Z,49.33
2017-10-16T00:58:26.894Z,49.70
2017-10-16T01:00:54.299Z,47.75
2017-10-16T01:03:21.726Z,47.67
2017-10-16T01:05:49.443Z,49.13
2017-10-16T01:08:16.843Z,44.97
2017-10-16T01:10:44.278Z,47.40
2017-10-16T01:13:11.674Z,42.23
2017-10-16T01:15:39.093Z,47.20
2017-10-16T01:18:06.523Z,51.87
2017-10-16T01:20:33.958Z,49.07
2017-10-16T01:23:01.373Z,50.38
2017-10-16T01:25:28.805Z,52.93
2017-10-16T01:27:56.223Z,49.67
2017-10-16T01:30:23.634Z,49.07
2017-10-16T01:32:51.038Z,44.87
2017-10-16T01:35:18.463Z,43.10
2017-10-16T01:37:45.875Z,40.50
2017-10-16T01:40:13.332Z,35.33
2017-10-16T01:42:40.804Z,39.93
2017-10-16T01:45:08.215Z,37.30
2017-10-16T01:47:35.623Z,39.70
2017-10-16T01:50:03.046Z,40.77
2017-10-16T01:52:30.483Z,41.23
2017-10-16T01:54:57.897Z,39.47
2017-10-16T01:57:25.339Z,40.70
2017-10-16T01:59:52.947Z,43.30
2017-10-16T02:02:20.354Z,36.30
2017-10-16T02:04:47.801Z,38.77
2017-10-16T02:07:15.207Z,44.77
2017-10-16T02:09:42.632Z,42.23
2017-10-16T02:12:10.048Z,49.37
2017-10-16T02:14:37.454Z,46.57
2017-10-16T02:17:04.865Z,40.80
2017-10-16T02:19:32.556Z,60.20
2017-10-16T02:21:59.950Z,41.70
2017-10-16T02:24:27.389Z,40.80
2017-10-16T02:26:55.513Z,43.05
2017-10-16T02:29:22.921Z,57.50
2017-10-16T02:31:50.324Z,48.57
2017-10-16T02:34:17.936Z,59.63
2017-10-16T02:36:45.381Z,51.47
2017-10-16T02:39:12.794Z,44.77
2017-10-16T02:41:40.205Z,50.60
2017-10-16T02:44:07.741Z,43.95
2017-10-16T02:46:35.169Z,43.93
2017-10-16T02:49:02.570Z,49.67
2017-10-16T02:51:30.020Z,48.60
2017-10-16T02:53:57.538Z,43.30
2017-10-16T02:56:25.278Z,48.20
2017-10-16T02:58:52.814Z,46.77
2017-10-16T03:01:20.231Z,57.97
2017-10-16T03:03:47.691Z,42.42
2017-10-16T03:06:15.101Z,47.43
2017-10-16T03:08:42.521Z,47.55
2017-10-16T03:11:09.949Z,44.47
2017-10-16T03:13:37.374Z,50.30
2017-10-16T03:16:04.771Z,50.13
2017-10-16T03:18:32.204Z,52.90
2017-10-16T03:20:59.632Z,48.70
2017-10-16T03:23:27.208Z,46.73
2017-10-16T03:25:54.648Z,51.43
2017-10-16T03:28:22.053Z,48.00
2017-10-16T03:30:49.489Z,56.03
2017-10-16T03:33:16.933Z,52.27
2017-10-16T03:35:44.477Z,48.37
2017-10-16T03:38:11.880Z,50.00
2017-10-16T03:40:39.293Z,47.87
2017-10-16T03:43:06.729Z,54.90
2017-10-16T03:45:34.134Z,50.23
2017-10-16T03:48:01.677Z,48.27
2017-10-16T03:50:29.136Z,44.60
2017-10-16T03:52:56.539Z,45.63
2017-10-16T03:55:23.958Z,46.27
2017-10-16T03:57:51.381Z,44.77
2017-10-16T04:00:18.808Z,43.13
2017-10-16T04:02:46.217Z,47.13
2017-10-16T04:05:13.634Z,45.20
2017-10-16T04:07:41.037Z,46.10
2017-10-16T04:10:08.529Z,47.90
2017-10-16T04:12:35.960Z,45.00
2017-10-16T04:15:03.373Z,48.17
2017-10-16T04:17:30.913Z,44.43
2017-10-16T04:19:58.349Z,44.00
2017-10-16T04:22:25.826Z,41.80
2017-10-16T04:24:53.234Z,45.43
2017-10-16T04:27:20.692Z,39.78
2017-10-16T04:29:48.137Z,39.70
2017-10-16T04:32:15.538Z,38.87
2017-10-16T04:34:42.958Z,36.43
2017-10-16T04:37:10.525Z,38.50
2017-10-16T04:39:37.945Z,35.33
2017-10-16T04:42:05.384Z,37.33
2017-10-16T04:44:32.921Z,35.90
2017-10-16T04:47:00.356Z,35.93
2017-10-16T04:49:27.738Z,37.20
2017-10-16T04:51:55.888Z,34.25
2017-10-16T04:54:23.355Z,38.10
2017-10-16T04:56:50.769Z,35.90
2017-10-16T04:59:18.260Z,34.83
2017-10-16T05:01:46.016Z,37.97
2017-10-16T05:04:13.493Z,35.53
2017-10-16T05:06:40.917Z,31.77
2017-10-16T05:09:08.343Z,34.70
2017-10-16T05:11:35.774Z,34.00
2017-10-16T05:14:03.200Z,33.27
2017-10-16T05:16:30.586Z,31.53
2017-10-16T05:18:58.233Z,31.40
2017-10-16T05:21:25.639Z,30.57
2017-10-16T05:23:53.050Z,30.70
2017-10-16T05:26:20.452Z,33.50
2017-10-16T05:28:47.858Z,33.50
2017-10-16T05:31:15.264Z,32.67
2017-10-16T05:33:42.706Z,30.80
2017-10-16T05:36:10.251Z,31.37
2017-10-16T05:38:37.659Z,29.87
2017-10-16T05:41:05.359Z,30.90
2017-10-16T05:43:32.771Z,31.23
2017-10-16T05:46:00.207Z,33.20
2017-10-16T05:48:27.613Z,33.57
2017-10-16T05:50:55.025Z,34.28
2017-10-16T05:53:22.426Z,33.40
2017-10-16T05:55:49.847Z,32.40
2017-10-16T05:58:17.244Z,32.00
2017-10-16T06:00:44.693Z,32.10
2017-10-16T06:03:12.121Z,32.70
2017-10-16T06:05:39.537Z,34.00
2017-10-16T06:08:06.941Z,33.03
2017-10-16T06:10:34.374Z,32.67
2017-10-16T06:17:48.437Z,31.20
2017-10-16T06:20:15.869Z,31.57
2017-10-16T06:22:43.305Z,29.60
2017-10-16T06:25:10.983Z,27.13
2017-10-16T06:27:38.435Z,29.53
2017-10-16T06:30:06.013Z,33.10
2017-10-16T06:32:33.401Z,29.90
2017-10-16T06:35:00.838Z,28.37
2017-10-16T06:37:28.249Z,28.10
2017-10-16T06:39:55.794Z,28.83
2017-10-16T06:42:23.187Z,28.10
2017-10-16T06:44:50.593Z,28.43
2017-10-16T06:47:18.019Z,28.52
2017-10-16T06:49:45.431Z,29.37
2017-10-16T06:52:12.854Z,29.00
2017-10-16T06:54:40.247Z,30.37
2017-10-16T06:57:07.702Z,29.47
2017-10-16T06:59:35.108Z,29.75
2017-10-16T07:02:02.545Z,29.20
2017-10-16T07:04:30.090Z,31.97
2017-10-16T07:06:57.499Z,32.43
2017-10-16T07:09:24.913Z,29.50
2017-10-16T07:11:52.315Z,30.70
2017-10-16T07:14:19.782Z,30.53
2017-10-16T07:16:47.208Z,32.38
2017-10-16T07:19:14.642Z,33.77
2017-10-16T07:21:42.161Z,30.20
2017-10-16T07:24:09.557Z,31.00
2017-10-16T07:26:37.138Z,29.30
2017-10-16T07:29:04.569Z,28.10
2017-10-16T07:31:31.993Z,28.83
2017-10-16T07:33:59.420Z,27.27
2017-10-16T07:36:26.805Z,27.07
2017-10-16T07:38:54.242Z,26.33
2017-10-16T07:41:21.628Z,27.10
2017-10-16T07:43:49.037Z,25.90
2017-10-16T07:46:16.615Z,23.55
2017-10-16T07:48:44.001Z,26.73
2017-10-16T07:51:11.421Z,26.60
2017-10-16T07:53:38.827Z,24.17
2017-10-16T07:56:06.267Z,25.40
2017-10-16T07:58:33.655Z,23.10
2017-10-16T08:01:01.156Z,23.60
2017-10-16T08:03:28.544Z,22.33
2017-10-16T08:05:55.990Z,23.20
2017-10-16T08:08:23.402Z,38.37
2017-10-16T08:10:50.818Z,22.07
2017-10-16T08:13:18.360Z,22.70
2017-10-16T08:15:45.764Z,23.30
2017-10-16T08:18:13.202Z,24.00
2017-10-16T08:20:40.668Z,21.90
2017-10-16T08:23:08.084Z,23.20
2017-10-16T08:25:35.489Z,21.20
2017-10-16T08:28:02.917Z,22.13
2017-10-16T08:30:30.347Z,22.57
2017-10-16T08:32:57.783Z,23.87
2017-10-16T08:35:25.214Z,23.73
2017-10-16T08:37:52.622Z,23.23
2017-10-16T08:40:20.028Z,24.40
2017-10-16T08:42:47.469Z,99.85
2017-10-16T08:45:15.036Z,28.23
2017-10-16T08:47:42.438Z,25.73
2017-10-16T08:50:09.855Z,27.00
2017-10-16T08:52:37.315Z,25.90
2017-10-16T08:55:04.728Z,24.07
2017-10-16T08:57:32.130Z,23.60
2017-10-16T08:59:59.575Z,25.33
2017-10-16T09:02:26.981Z,25.50
2017-10-16T09:04:54.390Z,25.97
2017-10-16T09:07:21.835Z,24.70
2017-10-16T09:09:49.202Z,24.57
2017-10-16T09:12:16.783Z,25.27
2017-10-16T09:14:44.205Z,25.30
2017-10-16T09:17:11.642Z,25.57
2017-10-16T09:19:39.298Z,24.57
2017-10-16T09:22:06.705Z,24.60
2017-10-16T09:24:34.127Z,25.07
2017-10-16T09:27:01.654Z,24.52
2017-10-16T09:29:29.071Z,23.90
2017-10-16T09:31:56.767Z,25.45
2017-10-16T09:34:24.130Z,24.97
2017-10-16T09:36:51.788Z,25.23
2017-10-16T09:39:19.211Z,25.90
2017-10-16T09:41:46.709Z,25.33
2017-10-16T09:44:14.220Z,26.43
2017-10-16T09:46:41.633Z,27.50
2017-10-16T09:49:10.052Z,25.60
2017-10-16T09:51:38.385Z,26.33
2017-10-16T09:54:05.827Z,23.57
2017-10-16T09:56:33.220Z,27.63
2017-10-16T09:59:00.633Z,27.90
2017-10-16T10:01:28.057Z,25.10
2017-10-16T10:03:55.496Z,23.37
2017-10-16T10:06:22.927Z,23.83
2017-10-16T10:08:50.334Z,23.30
2017-10-16T10:11:17.743Z,21.35
2017-10-16T10:13:45.168Z,22.30
2017-10-16T10:16:12.576Z,29.57
2017-10-16T10:18:39.991Z,26.27
2017-10-16T10:21:07.439Z,23.60
2017-10-16T10:23:34.833Z,23.98
2017-10-16T10:26:02.321Z,22.43
2017-10-16T10:28:29.720Z,21.92
2017-10-16T10:30:57.113Z,25.40
2017-10-16T10:33:24.659Z,20.67
2017-10-16T10:35:52.044Z,21.40
2017-10-16T10:38:19.503Z,21.03
2017-10-16T10:40:47.850Z,22.10
2017-10-16T10:43:15.304Z,21.27
2017-10-16T10:45:42.705Z,19.97
2017-10-16T10:48:10.175Z,20.17
2017-10-16T10:50:37.618Z,20.00
2017-10-16T10:53:05.165Z,18.80
2017-10-16T10:55:32.617Z,17.83
2017-10-16T10:58:00.027Z,17.33
2017-10-16T11:00:27.474Z,18.13
2017-10-16T11:02:54.898Z,17.93
2017-10-16T11:05:22.332Z,18.33
2017-10-16T11:07:49.789Z,17.50
2017-10-16T11:10:17.372Z,17.30
2017-10-16T11:12:44.766Z,19.43
2017-10-16T11:15:12.326Z,18.17
2017-10-16T11:17:39.750Z,17.83
2017-10-16T11:20:07.186Z,17.10
2017-10-16T11:22:34.682Z,17.47
2017-10-16T11:25:02.108Z,18.00
2017-10-16T11:27:29.513Z,18.20
2017-10-16T11:29:56.962Z,17.10
2017-10-16T11:32:24.387Z,15.60
2017-10-16T11:34:51.791Z,15.10
2017-10-16T11:37:19.214Z,17.80
2017-10-16T11:39:46.609Z,17.10
2017-10-16T11:42:14.023Z,16.23
2017-10-16T11:44:41.625Z,17.50
2017-10-16T11:47:09.084Z,16.53
2017-10-16T11:49:36.496Z,15.60
2017-10-16T11:52:03.931Z,14.87
2017-10-16T11:54:31.369Z,13.80
2017-10-16T11:56:58.770Z,13.33
2017-10-16T11:59:27.229Z,12.80
2017-10-16T12:01:54.714Z,14.00
2017-10-16T12:04:22.113Z,12.90
2017-10-16T12:06:49.541Z,14.23
2017-10-16T12:09:16.967Z,14.07
2017-10-16T12:11:44.359Z,14.13
2017-10-16T12:14:11.825Z,14.60
2017-10-16T12:16:39.259Z,13.30
2017-10-16T12:19:06.892Z,14.10
2017-10-16T12:21:34.293Z,13.23
2017-10-16T12:24:01.746Z,11.67
2017-10-16T12:26:29.250Z,11.50
2017-10-16T12:28:57.282Z,11.30
2017-10-16T12:31:24.793Z,12.63
2017-10-16T12:33:53.148Z,11.47
2017-10-16T12:36:20.620Z,11.23
2017-10-16T12:38:48.054Z,12.77
2017-10-16T12:41:15.469Z,11.00
2017-10-16T12:43:46.758Z,11.17
2017-10-16T12:46:14.188Z,11.20
2017-10-16T12:48:42.588Z,11.27
2017-10-16T12:51:10.068Z,11.30
2017-10-16T12:53:38.081Z,11.63
2017-10-16T12:56:05.490Z,11.97
2017-10-16T12:58:32.906Z,12.00
2017-10-16T13:01:00.421Z,12.33
2017-10-16T13:03:27.905Z,11.27
2017-10-16T13:05:55.457Z,12.07
2017-10-16T13:08:22.869Z,13.03
2017-10-16T13:10:50.676Z,12.90
2017-10-16T13:13:18.084Z,11.70
2017-10-16T13:15:45.677Z,12.75
2017-10-16T13:18:13.469Z,12.30
2017-10-16T13:20:40.874Z,11.77
2017-10-16T13:24:11.401Z,13.27
2017-10-16T13:26:38.875Z,10.97
2017-10-16T13:29:06.588Z,12.47
2017-10-16T13:31:33.981Z,11.30
2017-10-16T13:34:01.386Z,10.60
2017-10-16T13:36:28.820Z,10.97
2017-10-16T13:38:56.252Z,12.20
2017-10-16T13:41:23.705Z,9.60
2017-10-16T13:43:51.888Z,10.90
2017-10-16T13:46:19.274Z,10.70
2017-10-16T13:48:46.746Z,11.97
2017-10-16T13:51:14.202Z,11.00
2017-10-16T13:53:41.618Z,11.07
2017-10-16T13:56:09.029Z,9.70
2017-10-16T13:58:36.491Z,10.43
2017-10-16T14:01:03.934Z,11.10
2017-10-16T14:03:31.370Z,11.83
2017-10-16T14:05:59.238Z,14.27
2017-10-16T14:08:26.698Z,11.13
2017-10-16T14:10:54.127Z,10.43
2017-10-16T14:13:21.544Z,9.90
2017-10-16T14:15:49.268Z,10.60
2017-10-16T14:18:16.726Z,11.60
2017-10-16T14:20:44.523Z,11.77
2017-10-16T14:23:11.959Z,11.43
2017-10-16T14:25:39.640Z,11.53
2017-10-16T14:28:07.250Z,11.40
2017-10-16T14:30:34.682Z,12.17
2017-10-16T14:33:02.104Z,10.30
2017-10-16T14:35:29.707Z,10.90
2017-10-16T14:37:57.137Z,10.47
2017-10-16T14:40:24.585Z,11.13
2017-10-16T14:42:52.057Z,9.57
2017-10-16T14:45:19.460Z,10.52
2017-10-16T14:47:46.942Z,9.97
2017-10-16T14:50:14.334Z,11.50
2017-10-16T14:52:41.757Z,13.33
2017-10-16T14:55:09.242Z,11.50
2017-10-16T14:57:36.650Z,11.18
2017-10-16T15:00:04.049Z,11.17
2017-10-16T15:02:31.539Z,11.07
2017-10-16T15:04:58.969Z,10.93
2017-10-16T15:07:26.401Z,10.93
2017-10-16T15:09:53.822Z,9.87
2017-10-16T15:12:21.271Z,9.47
2017-10-16T15:14:48.745Z,9.90
2017-10-16T15:17:16.143Z,9.80
2017-10-16T15:19:43.605Z,10.37
2017-10-16T15:22:11.049Z,9.53
2017-10-16T15:24:40.178Z,9.70
2017-10-16T15:27:07.627Z,10.27
2017-10-16T15:29:35.036Z,10.07
2017-10-16T15:32:02.614Z,10.33
2017-10-16T15:34:30.126Z,10.50
2017-10-16T15:36:57.926Z,11.40
2017-10-16T15:39:25.531Z,10.00
2017-10-16T15:41:52.986Z,10.83
2017-10-16T15:44:20.380Z,10.07
2017-10-16T15:46:48.989Z,9.70
2017-10-16T15:49:17.080Z,11.60
2017-10-16T15:51:45.035Z,10.20
2017-10-16T15:54:12.457Z,13.77
2017-10-16T15:56:39.900Z,13.40
2017-10-16T15:59:07.376Z,12.93
2017-10-16T16:01:34.833Z,13.63
2017-10-16T16:04:02.310Z,14.77
2017-10-16T16:06:29.962Z,15.97
2017-10-16T16:08:57.390Z,15.53
2017-10-16T16:11:24.841Z,17.37
2017-10-16T16:13:52.258Z,11.37
2017-10-16T16:16:19.941Z,17.67
2017-10-16T16:18:47.346Z,12.80
2017-10-16T16:21:14.835Z,17.03
2017-10-16T16:23:42.245Z,11.57
2017-10-16T16:26:09.670Z,12.03
2017-10-16T16:28:37.237Z,12.87
2017-10-16T16:31:04.930Z,13.00
2017-10-16T16:33:32.328Z,13.17
2017-10-16T16:35:59.770Z,14.57
2017-10-16T16:38:27.181Z,13.40
2017-10-16T16:40:54.662Z,14.27
2017-10-16T16:43:22.139Z,18.23
2017-10-16T16:45:49.561Z,19.10
2017-10-16T16:48:17.510Z,15.40
2017-10-16T16:50:44.935Z,14.80
2017-10-16T16:53:12.497Z,14.30
2017-10-16T16:55:39.937Z,15.37
2017-10-16T16:58:07.411Z,16.07
2017-10-16T17:00:34.832Z,14.87
2017-10-16T17:03:02.292Z,14.90
2017-10-16T17:05:32.759Z,16.47
2017-10-16T17:08:00.751Z,16.30
2017-10-16T17:10:28.196Z,16.97
2017-10-16T17:12:55.615Z,15.47
2017-10-16T17:15:23.044Z,15.57
2017-10-16T17:17:50.574Z,16.12
2017-10-16T17:20:18.043Z,15.83
2017-10-16T17:22:45.494Z,16.63
2017-10-16T17:25:12.914Z,15.80
2017-10-16T17:27:40.325Z,16.83
2017-10-16T17:30:07.776Z,15.57
2017-10-16T17:32:35.181Z,15.33
2017-10-16T17:35:02.615Z,16.23
2017-10-16T17:37:30.040Z,17.40
2017-10-16T17:39:57.577Z,16.00
2017-10-16T17:42:25.230Z,16.70
2017-10-16T17:44:52.665Z,17.03
2017-10-16T17:47:20.087Z,16.08
2017-10-16T17:49:47.520Z,17.13
2017-10-16T17:52:14.976Z,17.33
2017-10-16T17:54:42.414Z,16.70
2017-10-16T17:57:09.912Z,16.10
2017-10-16T17:59:37.316Z,19.00
2017-10-16T18:02:06.696Z,18.60
2017-10-16T18:04:34.226Z,18.13
2017-10-16T18:07:01.654Z,17.10
2017-10-16T18:09:29.253Z,18.83
2017-10-16T18:11:56.769Z,18.63
2017-10-16T18:14:24.162Z,19.27
2017-10-16T18:16:51.566Z,18.20
2017-10-16T18:19:19.013Z,19.10
2017-10-16T18:21:46.425Z,19.00
2017-10-16T18:24:13.833Z,18.57
2017-10-16T18:26:41.268Z,19.90
2017-10-16T18:29:08.687Z,18.53
2017-10-16T18:31:36.118Z,19.90
2017-10-16T18:34:03.516Z,20.30
2017-10-16T18:36:31.472Z,20.20
2017-10-16T18:38:58.886Z,20.03
2017-10-16T18:41:26.360Z,20.40
2017-10-16T18:43:53.801Z,20.33
2017-10-16T18:46:21.317Z,19.67
2017-10-16T18:48:48.847Z,20.13
2017-10-16T18:51:16.260Z,20.90
2017-10-16T18:53:43.736Z,21.40
2017-10-16T18:56:11.146Z,20.97
2017-10-16T18:58:38.652Z,20.57
2017-10-16T19:01:06.104Z,20.37
2017-10-16T19:03:35.583Z,20.90
2017-10-16T19:06:03.297Z,20.07
2017-10-16T19:08:30.749Z,20.50
2017-10-16T19:10:58.297Z,21.57
2017-10-16T19:13:25.804Z,19.50
2017-10-16T19:15:53.313Z,19.60
2017-10-16T19:18:20.744Z,21.40
2017-10-16T19:20:48.153Z,20.13
2017-10-16T19:23:15.788Z,20.40
2017-10-16T19:25:43.226Z,19.40
2017-10-16T19:28:10.619Z,19.67
2017-10-16T19:30:38.100Z,19.90
2017-10-16T19:33:05.712Z,19.95
2017-10-16T19:35:34.132Z,21.20
2017-10-16T19:38:01.585Z,19.33
2017-10-16T19:40:29.016Z,18.93
2017-10-16T19:42:56.468Z,20.33
2017-10-16T19:45:23.917Z,19.50
2017-10-16T19:47:51.418Z,19.83
2017-10-16T19:50:19.132Z,20.50
2017-10-16T19:52:46.612Z,19.93
2017-10-16T19:55:14.091Z,19.90
2017-10-16T19:57:41.555Z,20.30
2017-10-16T20:00:08.979Z,19.30
2017-10-16T20:02:36.602Z,19.83
2017-10-16T20:05:04.018Z,19.80
2017-10-16T20:07:31.487Z,19.53
2017-10-16T20:09:58.919Z,20.07
2017-10-16T20:12:26.686Z,20.37
2017-10-16T20:14:54.101Z,21.87
2017-10-16T20:17:21.687Z,21.27
2017-10-16T20:19:49.150Z,19.20
2017-10-16T20:22:16.552Z,20.90
2017-10-16T20:24:50.662Z,21.47
2017-10-16T20:27:18.285Z,20.00
2017-10-16T20:29:45.719Z,21.10
2017-10-16T20:32:13.313Z,20.70
2017-10-16T20:34:40.799Z,20.47
2017-10-16T20:37:07.499Z,21.17
2017-10-16T20:39:37.511Z,21.10
2017-10-16T20:42:04.935Z,22.03
2017-10-16T20:44:32.466Z,22.63
2017-10-16T20:46:59.902Z,23.07
2017-10-16T20:49:27.335Z,21.30
2017-10-16T20:51:54.907Z,22.33
2017-10-16T20:54:22.545Z,22.27
2017-10-16T20:56:49.985Z,21.60
2017-10-16T20:59:17.410Z,21.30
2017-10-16T21:01:44.899Z,21.57
2017-10-16T21:04:12.286Z,22.30
2017-10-16T21:06:39.731Z,21.55
2017-10-16T21:09:07.174Z,22.07
2017-10-16T21:11:34.580Z,21.60
2017-10-16T21:14:02.005Z,23.23
2017-10-16T21:16:29.441Z,21.00
2017-10-16T21:18:56.850Z,20.17
2017-10-16T21:21:24.455Z,20.40
2017-10-16T21:23:51.894Z,20.30
2017-10-16T21:26:19.335Z,21.10
2017-10-16T21:28:46.764Z,21.52
2017-10-16T21:31:14.173Z,21.23
2017-10-16T21:33:41.601Z,21.60
2017-10-16T21:36:09.016Z,22.63
2017-10-16T21:38:36.486Z,21.57
2017-10-16T21:41:03.931Z,22.57
2017-10-16T21:43:31.353Z,20.93
2017-10-16T21:45:58.762Z,21.35
2017-10-16T21:48:26.240Z,22.33
2017-10-16T21:50:53.705Z,22.30
2017-10-16T21:53:21.137Z,21.03
2017-10-16T21:55:48.650Z,21.50
2017-10-16T21:58:16.141Z,22.80
2017-10-16T22:00:43.551Z,23.00
2017-10-16T22:03:10.996Z,21.90
2017-10-16T22:05:38.407Z,21.67
2017-10-16T22:08:05.824Z,22.60
2017-10-16T22:10:33.250Z,23.40
2017-10-16T22:13:00.695Z,24.07
2017-10-16T22:15:28.078Z,23.10
2017-10-16T22:17:55.531Z,23.57
2017-10-16T22:20:23.370Z,21.10
2017-10-16T22:22:51.329Z,24.63
2017-10-16T22:25:18.710Z,22.30
2017-10-16T22:27:46.936Z,23.60
2017-10-16T22:30:14.359Z,23.50
2017-10-16T22:32:41.786Z,20.93
2017-10-16T22:35:09.187Z,22.60
2017-10-16T22:37:36.638Z,20.83
2017-10-16T22:40:04.065Z,22.00
2017-10-16T22:42:31.482Z,22.10
2017-10-16T22:44:58.913Z,20.83
2017-10-16T22:47:29.818Z,22.83
2017-10-16T22:49:57.232Z,23.10
2017-10-16T22:52:24.785Z,21.77
2017-10-16T22:54:52.192Z,21.40
2017-10-16T22:57:19.597Z,20.93
2017-10-16T22:59:47.012Z,21.80
2017-10-16T23:02:15.680Z,21.33
2017-10-16T23:04:43.091Z,22.33
2017-10-16T23:07:10.498Z,22.30
2017-10-16T23:09:37.966Z,21.60
2017-10-16T23:12:05.393Z,21.27
2017-10-16T23:14:32.786Z,21.20
2017-10-16T23:17:00.225Z,21.30
2017-10-16T23:19:27.636Z,20.00
2017-10-16T23:21:55.033Z,20.27
2017-10-16T23:24:22.449Z,21.43
2017-10-16T23:26:49.915Z,20.40
2017-10-16T23:29:18.646Z,21.43
2017-10-16T23:31:47.053Z,21.42
2017-10-16T23:34:14.472Z,20.40
2017-10-16T23:36:41.869Z,20.57
2017-10-16T23:39:09.312Z,20.57
2017-10-16T23:41:37.138Z,20.10
2017-10-16T23:44:04.574Z,19.60
2017-10-16T23:46:32.068Z,21.50
2017-10-16T23:48:59.490Z,19.80
2017-10-16T23:51:27.136Z,20.80
2017-10-16T23:53:54.537Z,21.10
2017-10-16T23:56:22.011Z,20.70
2017-10-16T23:58:49.400Z,19.90
